createdAt,value
2018-05-17T00:02:10.132Z,101183
2018-05-17T00:04:39.365Z,101183
2018-05-17T00:07:08.019Z,101190
2018-05-17T00:09:37.112Z,101196
2018-05-17T00:12:06.381Z,101196
2018-05-17T00:14:35.002Z,101194
2018-05-17T00:17:03.574Z,101197
2018-05-17T00:19:32.170Z,101196
2018-05-17T00:22:01.434Z,101201
2018-05-17T00:24:29.850Z,101199
2018-05-17T00:26:58.191Z,101201
2018-05-17T00:29:26.865Z,101206
2018-05-17T00:31:55.305Z,101204
2018-05-17T00:34:23.978Z,101212
2018-05-17T00:36:53.148Z,101212
2018-05-17T00:39:21.483Z,101214
2018-05-17T00:41:49.912Z,101216
2018-05-17T00:44:19.124Z,101215
2018-05-17T00:46:48.338Z,101214
2018-05-17T00:49:16.936Z,101216
2018-05-17T00:51:45.506Z,101213
2018-05-17T00:54:14.037Z,101213
2018-05-17T00:56:42.445Z,101212
2018-05-17T00:59:11.599Z,101209
2018-05-17T01:01:40.230Z,101203
2018-05-17T01:04:09.568Z,101198
2018-05-17T01:06:37.954Z,101197
2018-05-17T01:09:06.255Z,101198
2018-05-17T01:11:34.534Z,101200
2018-05-17T01:14:02.954Z,101196
2018-05-17T01:16:31.255Z,101204
2018-05-17T01:19:00.068Z,101206
2018-05-17T01:21:28.476Z,101201
2018-05-17T01:23:57.728Z,101211
2018-05-17T01:26:26.064Z,101213
2018-05-17T01:28:55.342Z,101210
2018-05-17T01:31:24.489Z,101216
2018-05-17T01:33:52.830Z,101215
2018-05-17T01:36:22.755Z,101219
2018-05-17T01:38:51.951Z,101219
2018-05-17T01:41:20.360Z,101218
2018-05-17T01:43:48.884Z,101219
2018-05-17T01:46:17.665Z,101212
2018-05-17T01:48:46.496Z,101212
2018-05-17T01:51:15.795Z,101212
2018-05-17T01:53:45.159Z,101210
2018-05-17T01:56:13.587Z,101209
2018-05-17T01:58:42.021Z,101219
2018-05-17T02:01:11.287Z,101219
2018-05-17T02:03:39.580Z,101223
2018-05-17T02:06:07.922Z,101226
2018-05-17T02:08:36.300Z,101225
2018-05-17T02:11:04.759Z,101230
2018-05-17T02:13:33.936Z,101230
2018-05-17T02:16:02.475Z,101228
2018-05-17T02:18:30.985Z,101231
2018-05-17T02:20:59.620Z,101237
2018-05-17T02:23:28.137Z,101238
2018-05-17T02:25:56.535Z,101236
2018-05-17T02:28:24.860Z,101234
2018-05-17T02:30:53.274Z,101233
2018-05-17T02:33:22.077Z,101243
2018-05-17T02:35:50.378Z,101238
2018-05-17T02:38:18.721Z,101243
2018-05-17T02:40:47.084Z,101242
2018-05-17T02:43:15.700Z,101239
2018-05-17T02:45:44.209Z,101244
2018-05-17T02:48:13.580Z,101243
2018-05-17T02:50:41.881Z,101244
2018-05-17T02:53:10.215Z,101248
2018-05-17T02:55:38.586Z,101241
2018-05-17T02:58:06.951Z,101246
2018-05-17T03:00:35.496Z,101246
2018-05-17T03:03:04.930Z,101244
2018-05-17T03:05:33.325Z,101242
2018-05-17T03:08:01.784Z,101241
2018-05-17T03:10:30.877Z,101247
2018-05-17T03:13:00.000Z,101250
2018-05-17T03:15:28.344Z,101255
2018-05-17T03:17:56.953Z,101259
2018-05-17T03:20:25.497Z,101258
2018-05-17T03:22:54.890Z,101263
2018-05-17T03:25:24.222Z,101264
2018-05-17T03:27:52.553Z,101259
2018-05-17T03:30:20.865Z,101267
2018-05-17T03:32:50.000Z,101260
2018-05-17T03:35:18.361Z,101263
2018-05-17T03:37:46.788Z,101256
2018-05-17T03:40:15.277Z,101263
2018-05-17T03:42:43.642Z,101265
2018-05-17T03:45:12.075Z,101260
2018-05-17T03:47:40.445Z,101263
2018-05-17T03:50:09.040Z,101259
2018-05-17T03:52:37.581Z,101263
2018-05-17T03:55:06.058Z,101267
2018-05-17T03:57:34.391Z,101264
2018-05-17T04:00:02.760Z,101260
2018-05-17T04:02:49.093Z,101263
2018-05-17T04:05:35.297Z,101260
2018-05-17T04:08:03.718Z,101266
2018-05-17T04:10:32.915Z,101268
2018-05-17T04:13:01.379Z,101265
2018-05-17T04:15:29.830Z,101271
2018-05-17T04:17:58.221Z,101267
2018-05-17T04:20:26.625Z,101272
2018-05-17T04:22:55.707Z,101270
2018-05-17T04:25:24.050Z,101268
2018-05-17T04:27:52.748Z,101269
2018-05-17T04:30:21.262Z,101272
2018-05-17T04:32:50.487Z,101279
2018-05-17T04:35:18.901Z,101292
2018-05-17T04:37:47.291Z,101281
2018-05-17T04:40:15.671Z,101279
2018-05-17T04:42:44.226Z,101282
2018-05-17T04:45:12.733Z,101280
2018-05-17T04:47:41.182Z,101284
2018-05-17T04:50:09.826Z,101272
2018-05-17T04:52:38.621Z,101285
2018-05-17T04:55:07.788Z,101292
2018-05-17T04:57:36.155Z,101289
2018-05-17T05:00:04.528Z,101288
2018-05-17T05:02:33.042Z,101287
2018-05-17T05:05:01.651Z,101278
2018-05-17T05:07:30.941Z,101286
2018-05-17T05:10:00.245Z,101287
2018-05-17T05:12:28.598Z,101289
2018-05-17T05:14:56.926Z,101287
2018-05-17T05:17:25.481Z,101295
2018-05-17T05:19:54.554Z,101291
2018-05-17T05:22:23.213Z,101288
2018-05-17T05:24:51.674Z,101296
2018-05-17T05:27:20.123Z,101296
2018-05-17T05:29:49.098Z,101298
2018-05-17T05:32:17.418Z,101292
2018-05-17T05:34:45.811Z,101297
2018-05-17T05:37:14.181Z,101306
2018-05-17T05:39:42.622Z,101303
2018-05-17T05:42:11.778Z,101304
2018-05-17T05:44:40.242Z,101305
2018-05-17T05:47:08.612Z,101305
2018-05-17T05:49:36.983Z,101300
2018-05-17T05:52:05.348Z,101306
2018-05-17T05:54:34.655Z,101306
2018-05-17T05:57:03.019Z,101314
2018-05-17T05:59:33.773Z,101308
2018-05-17T06:02:02.192Z,101310
2018-05-17T06:04:30.616Z,101305
2018-05-17T06:06:58.969Z,101309
2018-05-17T06:09:27.417Z,101319
2018-05-17T06:11:55.932Z,101313
2018-05-17T06:14:24.226Z,101317
2018-05-17T06:16:54.022Z,101327
2018-05-17T06:19:22.518Z,101323
2018-05-17T06:21:50.838Z,101324
2018-05-17T06:24:19.313Z,101324
2018-05-17T06:26:47.823Z,101324
2018-05-17T06:29:16.206Z,101323
2018-05-17T06:31:44.923Z,101322
2018-05-17T06:34:13.412Z,101323
2018-05-17T06:36:42.511Z,101324
2018-05-17T06:39:10.863Z,101318
2018-05-17T06:41:39.208Z,101324
2018-05-17T06:44:07.778Z,101322
2018-05-17T06:46:37.261Z,101310
2018-05-17T06:49:06.387Z,101285
2018-05-17T06:51:34.763Z,101313
2018-05-17T06:54:03.116Z,101316
2018-05-17T06:56:32.303Z,101320
2018-05-17T06:59:00.951Z,101326
2018-05-17T07:01:30.738Z,101329
2018-05-17T07:03:59.091Z,101321
2018-05-17T07:06:27.472Z,101324
2018-05-17T07:08:55.777Z,101323
2018-05-17T07:11:24.571Z,101316
2018-05-17T07:13:52.932Z,101320
2018-05-17T07:16:21.296Z,101321
2018-05-17T07:18:49.708Z,101313
2018-05-17T07:21:18.152Z,101309
2018-05-17T07:23:46.618Z,101305
2018-05-17T07:26:15.116Z,101307
2018-05-17T07:28:43.416Z,101311
2018-05-17T07:31:12.098Z,101311
2018-05-17T07:33:40.622Z,101317
2018-05-17T07:36:09.881Z,101312
2018-05-17T07:38:38.448Z,101315
2018-05-17T07:41:06.777Z,101318
2018-05-17T07:43:35.206Z,101322
2018-05-17T07:46:03.766Z,101326
2018-05-17T07:48:32.276Z,101320
2018-05-17T07:51:00.581Z,101327
2018-05-17T07:53:29.024Z,101324
2018-05-17T07:55:57.503Z,101327
2018-05-17T07:58:26.274Z,101326
2018-05-17T08:00:55.313Z,101322
2018-05-17T08:03:23.715Z,101327
2018-05-17T08:05:52.094Z,101333
2018-05-17T08:08:20.427Z,101327
2018-05-17T08:10:48.902Z,101324
2018-05-17T08:13:17.401Z,101338
2018-05-17T08:15:45.767Z,101335
2018-05-17T08:18:14.082Z,101337
2018-05-17T08:20:42.467Z,101333
2018-05-17T08:23:10.788Z,101333
2018-05-17T08:25:39.171Z,101337
2018-05-17T08:28:07.632Z,101334
2018-05-17T08:30:36.824Z,101324
2018-05-17T08:33:05.976Z,101326
2018-05-17T08:35:34.501Z,101317
2018-05-17T08:38:03.909Z,101322
2018-05-17T08:40:33.011Z,101324
2018-05-17T08:43:02.164Z,101316
2018-05-17T08:45:30.550Z,101321
2018-05-17T08:47:59.123Z,101321
2018-05-17T08:50:27.564Z,101316
2018-05-17T08:52:55.976Z,101321
2018-05-17T08:55:24.509Z,101322
2018-05-17T08:57:52.983Z,101330
2018-05-17T09:00:22.999Z,101328
2018-05-17T09:02:53.257Z,101326
2018-05-17T09:05:21.566Z,101319
2018-05-17T09:07:49.872Z,101323
2018-05-17T09:10:18.360Z,101319
2018-05-17T09:12:47.487Z,101320
2018-05-17T09:15:15.972Z,101320
2018-05-17T09:17:44.361Z,101329
2018-05-17T09:20:12.950Z,101341
2018-05-17T09:22:41.319Z,101333
2018-05-17T09:25:09.768Z,101332
2018-05-17T09:27:38.899Z,101341
2018-05-17T09:30:07.434Z,101333
2018-05-17T09:32:35.844Z,101342
2018-05-17T09:35:04.212Z,101334
2018-05-17T09:37:32.603Z,101333
2018-05-17T09:40:00.920Z,101327
2018-05-17T09:42:29.409Z,101326
2018-05-17T09:44:58.663Z,101317
2018-05-17T09:47:27.041Z,101318
2018-05-17T09:49:55.393Z,101312
2018-05-17T09:52:24.867Z,101312
2018-05-17T09:54:53.311Z,101323
2018-05-17T09:57:21.633Z,101319
2018-05-17T09:59:50.008Z,101318
2018-05-17T10:02:18.372Z,101299
2018-05-17T10:04:46.703Z,101315
2018-05-17T10:07:15.218Z,101321
2018-05-17T10:09:43.677Z,101329
2018-05-17T10:12:12.034Z,101322
2018-05-17T10:14:41.157Z,101325
2018-05-17T10:17:09.514Z,101328
2018-05-17T10:19:37.981Z,101323
2018-05-17T10:22:07.322Z,101322
2018-05-17T10:24:35.882Z,101320
2018-05-17T10:27:04.203Z,101321
2018-05-17T10:29:32.650Z,101319
2018-05-17T10:32:00.974Z,101316
2018-05-17T10:34:29.263Z,101316
2018-05-17T10:36:58.418Z,101304
2018-05-17T10:39:26.801Z,101305
2018-05-17T10:41:55.277Z,101306
2018-05-17T10:44:23.933Z,101299
2018-05-17T10:46:52.293Z,101293
2018-05-17T10:49:21.398Z,101295
2018-05-17T10:51:50.577Z,101304
2018-05-17T10:54:19.108Z,101299
2018-05-17T10:56:47.695Z,101295
2018-05-17T10:59:16.156Z,101297
2018-05-17T11:01:44.673Z,101284
2018-05-17T11:04:14.229Z,101293
2018-05-17T11:06:42.626Z,101288
2018-05-17T11:09:11.173Z,101294
2018-05-17T11:11:40.389Z,101294
2018-05-17T11:14:09.657Z,101291
2018-05-17T11:16:38.003Z,101295
2018-05-17T11:19:06.383Z,101284
2018-05-17T11:21:34.943Z,101284
2018-05-17T11:24:03.293Z,101274
2018-05-17T11:26:32.544Z,101272
2018-05-17T11:29:01.992Z,101267
2018-05-17T11:31:30.508Z,101265
2018-05-17T11:33:58.882Z,101255
2018-05-17T11:36:27.202Z,101263
2018-05-17T11:38:55.644Z,101265
2018-05-17T11:41:24.009Z,101262
2018-05-17T11:43:53.245Z,101261
2018-05-17T11:46:21.670Z,101260
2018-05-17T11:48:50.827Z,101257
2018-05-17T11:51:19.168Z,101258
2018-05-17T11:53:48.348Z,101246
2018-05-17T11:56:17.669Z,101255
2018-05-17T11:58:46.004Z,101250
2018-05-17T12:01:14.478Z,101241
2018-05-17T12:03:43.154Z,101248
2018-05-17T12:06:11.517Z,101242
2018-05-17T12:08:40.862Z,101247
2018-05-17T12:11:11.344Z,101233
2018-05-17T12:13:39.803Z,101232
2018-05-17T12:16:08.487Z,101233
2018-05-17T12:18:36.870Z,101236
2018-05-17T12:21:05.219Z,101229
2018-05-17T12:23:34.387Z,101232
2018-05-17T12:26:02.757Z,101227
2018-05-17T12:28:31.234Z,101225
2018-05-17T12:30:59.702Z,101220
2018-05-17T12:33:28.073Z,101220
2018-05-17T12:35:56.640Z,101222
2018-05-17T12:38:25.214Z,101226
2018-05-17T12:40:53.764Z,101225
2018-05-17T12:43:22.162Z,101209
2018-05-17T12:45:50.541Z,101215
2018-05-17T12:48:18.884Z,101217
2018-05-17T12:50:47.453Z,101220
2018-05-17T12:53:15.882Z,101221
2018-05-17T12:55:45.003Z,101219
2018-05-17T12:58:13.409Z,101219
2018-05-17T13:00:41.802Z,101218
2018-05-17T13:03:10.173Z,101232
2018-05-17T13:05:38.648Z,101224
2018-05-17T13:08:07.120Z,101213
2018-05-17T13:10:35.634Z,101215
2018-05-17T13:13:04.134Z,101214
2018-05-17T13:15:32.558Z,101215
2018-05-17T13:18:01.089Z,101207
2018-05-17T13:20:29.669Z,101205
2018-05-17T13:22:58.321Z,101205
2018-05-17T13:25:26.803Z,101199
2018-05-17T13:27:55.262Z,101203
2018-05-17T13:30:23.694Z,101200
2018-05-17T13:32:51.990Z,101198
2018-05-17T13:35:21.107Z,101191
2018-05-17T13:37:51.433Z,101185
2018-05-17T13:40:19.764Z,101194
2018-05-17T13:42:48.255Z,101198
2018-05-17T13:45:16.604Z,101204
2018-05-17T13:47:45.241Z,101187
2018-05-17T13:50:14.368Z,101183
2018-05-17T13:52:42.782Z,101177
2018-05-17T13:55:11.116Z,101180
2018-05-17T13:57:39.684Z,101179
2018-05-17T14:00:08.110Z,101178
2018-05-17T14:02:36.691Z,101172
2018-05-17T14:05:04.906Z,101171
2018-05-17T14:07:34.620Z,101164
2018-05-17T14:10:03.045Z,101171
2018-05-17T14:12:31.559Z,101170
2018-05-17T14:14:59.884Z,101170
2018-05-17T14:17:28.349Z,101175
2018-05-17T14:19:57.243Z,101174
2018-05-17T14:22:25.611Z,101175
2018-05-17T14:24:54.108Z,101172
2018-05-17T14:27:22.605Z,101173
2018-05-17T14:29:51.110Z,101177
2018-05-17T14:32:19.606Z,101173
2018-05-17T14:34:47.960Z,101165
2018-05-17T14:37:16.434Z,101170
2018-05-17T14:39:45.489Z,101159
2018-05-17T14:42:14.611Z,101156
2018-05-17T14:44:43.004Z,101162
2018-05-17T14:47:11.425Z,101162
2018-05-17T14:49:39.869Z,101163
2018-05-17T14:52:09.211Z,101165
2018-05-17T14:54:38.521Z,101165
2018-05-17T14:57:07.701Z,101167
2018-05-17T14:59:36.125Z,101165
2018-05-17T15:02:04.470Z,101164
2018-05-17T15:04:32.913Z,101157
2018-05-17T15:07:01.395Z,101169
2018-05-17T15:09:29.885Z,101161
2018-05-17T15:11:58.243Z,101160
2018-05-17T15:14:26.735Z,101158
2018-05-17T15:16:55.221Z,101158
2018-05-17T15:19:23.779Z,101159
2018-05-17T15:21:52.254Z,101158
2018-05-17T15:24:20.730Z,101153
2018-05-17T15:26:49.225Z,101150
2018-05-17T15:29:17.806Z,101160
2018-05-17T15:31:46.580Z,101163
2018-05-17T15:34:15.009Z,101164
2018-05-17T15:36:45.125Z,101163
2018-05-17T15:39:13.650Z,101157
2018-05-17T15:41:42.122Z,101158
2018-05-17T15:44:10.555Z,101168
2018-05-17T15:46:38.859Z,101163
2018-05-17T15:49:07.311Z,101162
2018-05-17T15:51:35.944Z,101160
2018-05-17T15:54:05.146Z,101159
2018-05-17T15:56:34.375Z,101160
2018-05-17T15:59:03.027Z,101170
2018-05-17T16:01:32.307Z,101169
2018-05-17T16:04:00.788Z,101163
2018-05-17T16:06:29.247Z,101148
2018-05-17T16:08:57.845Z,101145
2018-05-17T16:11:26.234Z,101139
2018-05-17T16:13:54.595Z,101141
2018-05-17T16:16:22.921Z,101134
2018-05-17T16:18:51.449Z,101131
2018-05-17T16:21:19.947Z,101145
2018-05-17T16:23:49.275Z,101099
2018-05-17T16:26:18.603Z,101135
2018-05-17T16:28:47.137Z,101143
2018-05-17T16:31:16.290Z,101143
2018-05-17T16:33:44.728Z,101139
2018-05-17T16:36:14.056Z,101149
2018-05-17T16:38:42.565Z,101151
2018-05-17T16:41:10.895Z,101163
2018-05-17T16:43:39.312Z,101150
2018-05-17T16:46:07.736Z,101155
2018-05-17T16:48:36.866Z,101154
2018-05-17T16:51:06.166Z,101158
2018-05-17T16:53:34.514Z,101158
2018-05-17T16:56:04.762Z,101148
2018-05-17T16:58:33.195Z,101148
2018-05-17T17:01:01.606Z,101152
2018-05-17T17:03:30.116Z,101153
2018-05-17T17:05:58.569Z,101153
2018-05-17T17:08:27.931Z,101166
2018-05-17T17:10:57.095Z,101166
2018-05-17T17:13:25.599Z,101169
2018-05-17T17:15:54.046Z,101168
2018-05-17T17:18:22.556Z,101173
2018-05-17T17:20:50.921Z,101169
2018-05-17T17:23:19.424Z,101171
2018-05-17T17:25:48.674Z,101175
2018-05-17T17:28:17.226Z,101173
2018-05-17T17:30:47.231Z,101175
2018-05-17T17:33:16.450Z,101179
2018-05-17T17:35:45.662Z,101170
2018-05-17T17:40:51.357Z,101157
2018-05-17T17:43:19.698Z,101170
2018-05-17T17:45:48.366Z,101165
2018-05-17T17:48:17.817Z,101175
2018-05-17T17:50:46.205Z,101184
2018-05-17T17:53:15.163Z,101186
2018-05-17T17:55:43.594Z,101190
2018-05-17T17:58:12.085Z,101193
2018-05-17T18:00:40.433Z,101194
2018-05-17T18:03:09.197Z,101205
2018-05-17T18:05:37.580Z,101207
2018-05-17T18:08:06.231Z,101205
2018-05-17T18:10:35.738Z,101199
2018-05-17T18:13:04.352Z,101204
2018-05-17T18:15:32.878Z,101205
2018-05-17T18:18:02.160Z,101210
2018-05-17T18:20:30.683Z,101209
2018-05-17T18:22:59.092Z,101212
2018-05-17T18:25:27.641Z,101213
2018-05-17T18:27:57.015Z,101217
2018-05-17T18:30:25.581Z,101225
2018-05-17T18:32:54.279Z,101230
2018-05-17T18:35:22.720Z,101236
2018-05-17T18:37:51.582Z,101235
2018-05-17T18:40:21.839Z,101239
2018-05-17T18:42:50.238Z,101243
2018-05-17T18:45:18.628Z,101246
2018-05-17T18:47:47.057Z,101245
2018-05-17T18:50:15.547Z,101249
2018-05-17T18:52:43.924Z,101246
2018-05-17T18:55:12.293Z,101252
2018-05-17T18:57:40.706Z,101255
2018-05-17T19:00:09.114Z,101263
2018-05-17T19:02:37.645Z,101262
2018-05-17T19:05:06.571Z,101269
2018-05-17T19:07:35.116Z,101266
2018-05-17T19:10:04.720Z,101268
2018-05-17T19:12:33.730Z,101277
2018-05-17T19:15:03.091Z,101277
2018-05-17T19:17:32.015Z,101281
2018-05-17T19:20:00.416Z,101285
2018-05-17T19:22:28.756Z,101286
2018-05-17T19:24:58.956Z,101292
2018-05-17T19:27:27.383Z,101299
2018-05-17T19:29:55.960Z,101301
2018-05-17T19:32:25.180Z,101301
2018-05-17T19:34:53.983Z,101305
2018-05-17T19:37:22.921Z,101314
2018-05-17T19:39:53.430Z,101322
2018-05-17T19:42:25.483Z,101322
2018-05-17T19:44:55.184Z,101326
2018-05-17T19:47:25.711Z,101333
2018-05-17T19:49:54.175Z,101335
2018-05-17T19:52:22.730Z,101338
2018-05-17T19:54:51.399Z,101340
2018-05-17T19:57:19.852Z,101333
2018-05-17T19:59:49.113Z,101343
2018-05-17T20:02:17.471Z,101346
2018-05-17T20:04:46.013Z,101343
2018-05-17T20:07:16.310Z,101353
2018-05-17T20:09:44.981Z,101354
2018-05-17T20:12:14.876Z,101362
2018-05-17T20:14:43.645Z,101368
2018-05-17T20:17:12.395Z,101368
2018-05-17T20:19:40.784Z,101368
2018-05-17T20:22:09.233Z,101367
2018-05-17T20:24:37.811Z,101371
2018-05-17T20:27:06.431Z,101369
2018-05-17T20:29:34.826Z,101371
2018-05-17T20:32:04.007Z,101377
2018-05-17T20:34:32.342Z,101376
2018-05-17T20:37:01.080Z,101370
2018-05-17T20:39:30.428Z,101377
2018-05-17T20:41:58.826Z,101377
2018-05-17T20:44:27.234Z,101376
2018-05-17T20:46:56.380Z,101380
2018-05-17T20:49:24.992Z,101380
2018-05-17T20:51:53.701Z,101377
2018-05-17T20:54:22.857Z,101387
2018-05-17T20:56:51.324Z,101387
2018-05-17T20:59:19.757Z,101393
2018-05-17T21:01:48.869Z,101394
2018-05-17T21:04:18.053Z,101395
2018-05-17T21:06:47.331Z,101393
2018-05-17T21:09:16.526Z,101395
2018-05-17T21:11:46.528Z,101396
2018-05-17T21:14:16.742Z,101398
2018-05-17T21:16:46.756Z,101397
2018-05-17T21:19:16.896Z,101391
2018-05-17T21:21:45.951Z,101399
2018-05-17T21:24:14.655Z,101398
2018-05-17T21:26:43.013Z,101393
2018-05-17T21:29:11.350Z,101399
2018-05-17T21:31:39.827Z,101396
2018-05-17T21:34:09.066Z,101398
2018-05-17T21:36:37.533Z,101400
2018-05-17T21:39:06.902Z,101398
2018-05-17T21:41:35.261Z,101405
2018-05-17T21:44:03.594Z,101399
2018-05-17T21:46:32.695Z,101400
2018-05-17T21:49:01.074Z,101404
2018-05-17T21:51:29.442Z,101401
2018-05-17T21:53:59.497Z,101402
2018-05-17T21:56:27.902Z,101400
2018-05-17T21:58:56.635Z,101403
2018-05-17T22:01:25.216Z,101399
2018-05-17T22:03:54.661Z,101403
2018-05-17T22:06:23.335Z,101404
2018-05-17T22:08:51.712Z,101404
2018-05-17T22:11:20.060Z,101408
2018-05-17T22:13:49.405Z,101407
2018-05-17T22:16:17.787Z,101415
2018-05-17T22:18:46.205Z,101423
2018-05-17T22:21:15.417Z,101418
2018-05-17T22:23:43.980Z,101419
2018-05-17T22:26:12.314Z,101417
2018-05-17T22:28:40.615Z,101419
2018-05-17T22:31:08.981Z,101412
2018-05-17T22:33:37.296Z,101411
2018-05-17T22:36:06.383Z,101410
2018-05-17T22:38:34.747Z,101412
2018-05-17T22:41:03.828Z,101412
2018-05-17T22:43:32.227Z,101413
2018-05-17T22:46:00.552Z,101405
2018-05-17T22:48:28.912Z,101408
2018-05-17T22:50:58.026Z,101407
2018-05-17T22:53:26.495Z,101409
2018-05-17T22:55:55.011Z,101401
2018-05-17T22:58:37.612Z,101399
2018-05-17T23:01:05.990Z,101396
2018-05-17T23:03:34.458Z,101390
2018-05-17T23:06:02.887Z,101393
2018-05-17T23:08:32.120Z,101394
2018-05-17T23:11:02.112Z,101398
2018-05-17T23:13:30.542Z,101401
2018-05-17T23:15:58.875Z,101403
2018-05-17T23:18:27.484Z,101399
2018-05-17T23:20:56.110Z,101399
2018-05-17T23:23:24.420Z,101404
2018-05-17T23:25:53.541Z,101402
2018-05-17T23:28:21.841Z,101397
2018-05-17T23:30:50.197Z,101404
2018-05-17T23:33:18.565Z,101401
2018-05-17T23:35:47.685Z,101397
2018-05-17T23:38:16.074Z,101399
2018-05-17T23:43:52.162Z,101403
2018-05-17T23:46:20.515Z,101400
2018-05-17T23:48:49.816Z,101398
2018-05-17T23:51:18.133Z,101395
2018-05-17T23:53:46.440Z,101396
2018-05-17T23:56:15.661Z,101393
2018-05-17T23:58:44.261Z,101390
